Time;durP1;ratioP1;P1;durP2;ratioP2;P2;SDS_P1;SDS_P2;PMS_P1;PMS_P2;Temp;Humidity;BMP_temperature;BMP_pressure;BME280_temperature;BME280_humidity;BME280_pressure;Samples;Min_cycle;Max_cycle;Signal;HPM_P1;HPM_P2
2023/07/24 00:02:17;;;;;;;5.80;3.80;;;;;;;22.16;49.58;96253.23;108181;1279;22650;-78
2023/07/24 00:04:48;;;;;;;4.50;3.20;;;;;;;22.14;49.60;96249.82;108201;1276;22562;-78
2023/07/24 00:07:19;;;;;;;6.30;3.50;;;;;;;22.14;49.66;96249.73;108193;1279;25364;-78
2023/07/24 00:09:50;;;;;;;5.00;3.50;;;;;;;22.11;49.66;96247.92;108208;1279;22523;-78
2023/07/24 00:12:21;;;;;;;3.70;2.80;;;;;;;22.10;49.62;96247.95;108144;1273;22542;-78
2023/07/24 00:14:56;;;;;;;4.30;3.10;;;;;;;22.08;49.81;96245.61;108186;1279;25349;-79
2023/07/24 00:17:27;;;;;;;5.90;4.20;;;;;;;22.07;49.75;96245.29;108220;1279;25243;-79
2023/07/24 00:19:58;;;;;;;5.10;3.90;;;;;;;22.04;49.94;96244.83;108205;1279;22587;-78
2023/07/24 00:22:28;;;;;;;5.00;3.40;;;;;;;21.98;50.03;96240.20;108216;1274;26350;-78
2023/07/24 00:25:00;;;;;;;4.10;3.20;;;;;;;21.92;50.16;96238.77;108169;1272;22528;-78
2023/07/24 00:27:31;;;;;;;5.10;3.50;;;;;;;21.87;50.27;96238.70;108200;1272;23351;-78
2023/07/24 00:30:02;;;;;;;4.50;3.30;;;;;;;21.88;50.44;96239.39;108214;1272;22677;-78
2023/07/24 00:32:37;;;;;;;4.90;3.80;;;;;;;21.89;50.62;96235.17;108176;1279;22651;-78
2023/07/24 00:35:14;;;;;;;7.30;3.70;;;;;;;21.86;50.55;96234.99;108164;1273;22533;-78
2023/07/24 00:37:45;;;;;;;5.20;3.40;;;;;;;21.84;50.64;96231.24;108213;1277;25366;-78
2023/07/24 00:40:16;;;;;;;6.20;3.90;;;;;;;21.81;50.85;96229.89;108215;1279;22527;-78
2023/07/24 00:42:50;;;;;;;4.10;3.40;;;;;;;21.84;50.88;96227.31;108118;1279;23631;-78
2023/07/24 00:45:26;;;;;;;4.80;3.70;;;;;;;21.85;51.03;96225.57;108208;1276;22540;-78
2023/07/24 00:47:57;;;;;;;6.20;3.50;;;;;;;21.82;51.16;96220.13;108197;1276;22586;-77
2023/07/24 00:50:28;;;;;;;5.10;3.70;;;;;;;21.78;51.23;96219.88;108207;1273;22523;-78
2023/07/24 00:53:00;;;;;;;4.80;3.30;;;;;;;21.78;51.39;96214.79;108191;1272;24218;-78
2023/07/24 00:55:31;;;;;;;4.70;3.80;;;;;;;21.79;51.61;96215.81;108183;1279;22562;-78
2023/07/24 00:58:05;;;;;;;4.50;3.20;;;;;;;21.80;51.74;96216.20;108186;1279;22528;-78
2023/07/24 01:00:38;;;;;;;4.00;3.30;;;;;;;21.77;51.70;96206.67;108229;1279;22965;-77
2023/07/24 01:03:13;;;;;;;5.40;3.70;;;;;;;21.75;51.98;96204.34;108147;1279;22536;-78
2023/07/24 01:05:47;;;;;;;5.40;3.50;;;;;;;21.77;52.05;96208.36;108215;1279;22576;-78
2023/07/24 01:08:18;;;;;;;5.50;3.80;;;;;;;21.82;52.12;96205.91;108210;1272;22559;-78
2023/07/24 01:10:49;;;;;;;5.70;3.50;;;;;;;21.90;52.23;96199.19;108227;1272;22547;-78
2023/07/24 01:13:25;;;;;;;5.60;3.40;;;;;;;21.94;52.19;96201.55;108144;1279;22514;-77
2023/07/24 01:16:01;;;;;;;5.30;3.50;;;;;;;21.97;52.30;96199.60;108134;1279;22547;-77
2023/07/24 01:18:36;;;;;;;4.90;3.60;;;;;;;22.02;52.20;96196.98;108171;1279;25482;-77
2023/07/24 01:21:13;;;;;;;4.60;2.80;;;;;;;22.06;52.33;96206.16;108193;1272;22523;-78
2023/07/24 01:24:04;;;;;;;4.80;3.40;;;;;;;22.10;52.39;96199.39;108136;1274;23213;-77
2023/07/24 01:26:35;;;;;;;4.90;3.40;;;;;;;22.11;52.40;96201.79;108199;1272;22520;-78
2023/07/24 01:29:09;;;;;;;4.30;3.10;;;;;;;22.10;52.56;96205.84;108174;1279;22955;-76
2023/07/24 01:31:40;;;;;;;6.20;3.80;;;;;;;22.12;52.64;96203.89;108124;1272;25305;-77
2023/07/24 01:34:11;;;;;;;5.40;2.90;;;;;;;22.12;52.69;96208.60;108177;1272;25335;-77
2023/07/24 01:36:44;;;;;;;4.80;3.50;;;;;;;22.13;52.75;96203.52;108164;1279;25457;-78
2023/07/24 01:39:16;;;;;;;5.50;3.50;;;;;;;22.11;52.87;96196.02;108187;1279;22542;-77
2023/07/24 01:41:48;;;;;;;4.10;3.40;;;;;;;22.12;53.10;96204.20;108201;1277;22574;-78
2023/07/24 01:44:19;;;;;;;4.10;2.90;;;;;;;22.14;53.16;96193.27;108192;1272;24715;-78
2023/07/24 01:46:49;;;;;;;5.30;3.30;;;;;;;22.16;53.32;96191.83;108150;1268;23876;-78
2023/07/24 01:49:20;;;;;;;5.50;3.60;;;;;;;22.14;53.36;96194.58;108174;1279;22555;-79
2023/07/24 01:51:51;;;;;;;5.80;3.80;;;;;;;22.11;53.56;96195.53;108169;1279;22546;-78
2023/07/24 01:54:22;;;;;;;5.20;3.40;;;;;;;22.09;53.68;96194.17;108161;1279;22531;-78
2023/07/24 01:56:53;;;;;;;4.30;3.30;;;;;;;22.08;53.94;96198.25;108200;1272;23551;-78
2023/07/24 01:59:24;;;;;;;6.60;3.50;;;;;;;22.06;53.86;96195.45;108172;1279;22600;-78
2023/07/24 02:01:55;;;;;;;4.90;3.80;;;;;;;22.02;54.02;96197.30;108189;1271;22558;-78
2023/07/24 02:04:26;;;;;;;3.70;2.90;;;;;;;21.97;54.05;96194.27;108161;1279;24359;-77
2023/07/24 02:06:57;;;;;;;6.60;3.60;;;;;;;21.94;54.27;96190.45;108185;1279;22520;-78
2023/07/24 02:09:28;;;;;;;5.20;3.40;;;;;;;21.95;54.61;96185.61;108183;1279;22645;-78
2023/07/24 02:11:59;;;;;;;5.00;3.80;;;;;;;21.97;54.85;96184.95;108178;1279;22560;-78
2023/07/24 02:14:30;;;;;;;5.20;3.70;;;;;;;21.98;54.96;96181.89;108193;1277;22536;-78
2023/07/24 02:17:01;;;;;;;5.20;3.90;;;;;;;21.98;55.13;96180.66;108183;1279;22528;-78
2023/07/24 02:19:33;;;;;;;5.70;3.90;;;;;;;22.00;55.38;96174.67;108146;1272;22535;-78
2023/07/24 02:22:04;;;;;;;5.20;3.50;;;;;;;22.03;55.41;96174.77;108194;1279;22651;-78
2023/07/24 02:24:35;;;;;;;8.60;3.90;;;;;;;22.00;55.25;96173.36;108201;1279;25473;-77
2023/07/24 02:27:13;;;;;;;4.80;3.30;;;;;;;21.97;55.46;96169.75;108183;1279;22533;-78
2023/07/24 02:29:44;;;;;;;5.20;3.70;;;;;;;21.93;55.71;96162.60;108218;1272;25427;-77
2023/07/24 02:32:17;;;;;;;5.40;3.60;;;;;;;21.98;55.88;96169.53;108177;1279;22517;-78
2023/07/24 02:34:48;;;;;;;6.10;4.10;;;;;;;21.96;55.90;96168.83;108221;1279;25376;-78
2023/07/24 02:37:19;;;;;;;5.30;3.50;;;;;;;21.96;55.90;96168.52;108183;1271;26560;-78
2023/07/24 02:39:52;;;;;;;7.10;4.20;;;;;;;21.98;56.06;96170.16;108147;1272;24228;-78
2023/07/24 02:42:24;;;;;;;4.70;3.60;;;;;;;21.99;56.11;96169.25;108158;1276;22521;-78
2023/07/24 02:44:57;;;;;;;4.50;3.40;;;;;;;22.00;56.31;96163.72;108195;1279;22637;-78
2023/07/24 02:47:28;;;;;;;4.40;3.20;;;;;;;22.02;56.21;96161.97;108146;1279;25428;-78
2023/07/24 02:49:59;;;;;;;4.80;3.10;;;;;;;22.01;56.35;96168.96;108177;1279;22558;-78
2023/07/24 02:52:30;;;;;;;5.30;4.00;;;;;;;21.97;56.41;96164.66;108188;1279;23209;-78
2023/07/24 02:55:01;;;;;;;5.30;3.40;;;;;;;21.93;56.42;96166.84;108163;1279;24255;-77
2023/07/24 02:57:32;;;;;;;6.40;3.60;;;;;;;21.89;56.58;96164.02;108171;1279;23338;-78
2023/07/24 03:00:03;;;;;;;4.70;3.60;;;;;;;21.88;56.78;96159.45;108137;1279;22528;-78
2023/07/24 03:02:34;;;;;;;7.50;3.80;;;;;;;21.86;56.87;96159.34;108151;1279;22558;-78
2023/07/24 03:05:08;;;;;;;4.60;3.80;;;;;;;21.82;56.88;96157.35;108163;1279;22903;-78
2023/07/24 03:07:42;;;;;;;5.00;3.70;;;;;;;21.78;56.89;96151.80;108172;1279;25408;-78
2023/07/24 03:10:13;;;;;;;5.70;4.00;;;;;;;21.74;56.99;96152.36;108201;1279;24228;-77
2023/07/24 03:12:46;;;;;;;5.10;4.00;;;;;;;21.74;57.02;96151.83;108184;1279;24456;-78
2023/07/24 03:15:17;;;;;;;6.60;4.00;;;;;;;21.76;57.03;96151.22;108171;1272;22524;-78
2023/07/24 03:17:50;;;;;;;6.30;4.30;;;;;;;21.78;57.09;96146.64;108189;1272;22520;-78
2023/07/24 03:20:23;;;;;;;5.10;3.90;;;;;;;21.80;57.14;96149.20;108200;1272;22993;-78
2023/07/24 03:22:56;;;;;;;6.50;4.00;;;;;;;21.77;57.04;96150.32;108244;1279;22549;-77
2023/07/24 03:25:31;;;;;;;5.60;3.90;;;;;;;21.78;57.05;96153.42;108179;1279;24223;-78
2023/07/24 03:28:02;;;;;;;6.60;4.50;;;;;;;21.82;57.19;96152.73;108211;1272;22595;-78
2023/07/24 03:30:34;;;;;;;6.30;4.10;;;;;;;21.82;57.14;96151.96;108147;1276;22534;-78
2023/07/24 03:33:07;;;;;;;5.80;3.80;;;;;;;21.81;57.22;96148.77;108184;1279;22531;-77
2023/07/24 03:35:46;;;;;;;4.60;3.50;;;;;;;21.82;57.43;96153.41;108178;1276;22591;-78
2023/07/24 03:38:17;;;;;;;6.70;4.30;;;;;;;21.84;57.54;96151.44;108207;1279;23305;-78
2023/07/24 03:40:49;;;;;;;5.90;4.30;;;;;;;21.85;57.53;96156.48;108164;1279;22955;-78
2023/07/24 03:43:20;;;;;;;6.00;4.40;;;;;;;21.85;57.57;96154.46;108134;1278;22529;-78
2023/07/24 03:45:51;;;;;;;5.30;3.70;;;;;;;21.85;57.75;96155.23;108189;1279;22544;-78
2023/07/24 03:48:22;;;;;;;5.60;4.10;;;;;;;21.86;57.67;96154.09;108110;1279;22538;-78
2023/07/24 03:51:00;;;;;;;5.90;4.30;;;;;;;21.82;57.68;96156.05;108195;1279;22539;-78
2023/07/24 03:53:31;;;;;;;5.00;3.80;;;;;;;21.78;57.68;96160.05;108172;1279;22534;-78
2023/07/24 03:56:02;;;;;;;5.30;4.10;;;;;;;21.68;57.88;96160.50;108160;1279;22579;-78
2023/07/24 03:58:33;;;;;;;5.90;4.10;;;;;;;21.60;57.93;96158.45;108186;1279;22542;-78
2023/07/24 04:01:12;;;;;;;6.10;4.00;;;;;;;21.51;57.91;96158.45;108186;1279;24689;-78
2023/07/24 04:03:48;;;;;;;6.90;4.30;;;;;;;21.43;57.98;96155.70;108154;1279;24131;-78
2023/07/24 04:06:19;;;;;;;5.90;4.30;;;;;;;21.38;58.22;96160.84;108182;1279;22534;-78
2023/07/24 04:08:49;;;;;;;5.40;3.90;;;;;;;21.35;58.29;96161.02;108195;1279;22538;-78
2023/07/24 04:11:20;;;;;;;7.10;4.30;;;;;;;21.30;58.44;96158.02;108179;1271;23187;-78
2023/07/24 04:13:52;;;;;;;5.70;4.40;;;;;;;21.26;58.65;96156.31;108123;1277;22517;-78
2023/07/24 04:16:23;;;;;;;6.00;4.80;;;;;;;21.24;58.91;96159.09;108153;1256;24212;-78
2023/07/24 04:18:56;;;;;;;6.20;4.20;;;;;;;21.27;59.28;96151.27;108187;1272;22533;-78
2023/07/24 04:21:29;;;;;;;6.90;4.20;;;;;;;21.32;59.34;96145.95;108205;1279;24212;-78
2023/07/24 04:24:01;;;;;;;6.80;4.70;;;;;;;21.36;59.39;96144.01;108210;1279;22641;-78
2023/07/24 04:26:35;;;;;;;5.20;4.20;;;;;;;21.41;59.30;96140.33;108192;1279;24422;-77
2023/07/24 04:29:07;;;;;;;6.30;4.70;;;;;;;21.42;59.65;96141.52;108178;1272;22520;-77
2023/07/24 04:31:38;;;;;;;6.60;4.30;;;;;;;21.47;59.54;96139.11;108229;1279;25395;-78
2023/07/24 04:34:12;;;;;;;6.80;3.80;;;;;;;21.52;59.52;96143.73;108177;1273;22555;-78
2023/07/24 04:36:43;;;;;;;7.20;4.80;;;;;;;21.54;59.57;96149.02;108224;1279;22566;-78
2023/07/24 04:39:16;;;;;;;5.20;4.10;;;;;;;21.54;59.54;96150.96;108208;1279;22599;-77
2023/07/24 04:41:49;;;;;;;5.90;4.20;;;;;;;21.55;59.65;96152.21;108170;1276;22532;-77
2023/07/24 04:44:20;;;;;;;7.90;4.60;;;;;;;21.59;59.84;96153.73;108189;1279;22524;-77
2023/07/24 04:46:51;;;;;;;7.00;4.50;;;;;;;21.62;59.84;96144.61;108033;1279;190136;-77
2023/07/24 04:49:22;;;;;;;7.30;4.50;;;;;;;21.63;59.89;96156.34;108218;1276;22547;-77
2023/07/24 04:51:53;;;;;;;6.90;4.50;;;;;;;21.64;59.80;96151.02;108189;1272;22860;-77
2023/07/24 04:54:27;;;;;;;6.40;4.10;;;;;;;21.63;59.61;96144.23;108129;1279;23903;-77
2023/07/24 04:56:59;;;;;;;6.70;4.50;;;;;;;21.58;59.54;96141.99;108187;1276;22572;-78
2023/07/24 04:59:30;;;;;;;5.80;4.10;;;;;;;21.52;59.66;96141.80;108190;1272;22535;-78
2023/07/24 05:02:02;;;;;;;5.50;4.50;;;;;;;21.46;59.72;96142.34;108166;1276;22556;-78
2023/07/24 05:04:33;;;;;;;5.20;4.10;;;;;;;21.42;59.76;96142.20;108200;1279;22550;-78
2023/07/24 05:07:06;;;;;;;6.40;4.30;;;;;;;21.38;59.78;96131.39;108219;1279;22551;-77
2023/07/24 05:09:42;;;;;;;6.90;4.10;;;;;;;21.37;60.05;96133.39;108161;1274;22529;-77
2023/07/24 05:12:13;;;;;;;6.70;5.00;;;;;;;21.46;59.98;96131.23;108164;1279;22516;-78
2023/07/24 05:14:43;;;;;;;5.90;4.40;;;;;;;21.94;60.67;96132.77;108213;1279;25247;-78
2023/07/24 05:17:14;;;;;;;4.90;3.80;;;;;;;22.81;59.91;96127.95;108230;1279;22540;-77
2023/07/24 05:19:45;;;;;;;5.30;4.40;;;;;;;23.43;57.94;96122.80;108215;1279;22519;-77
2023/07/24 05:22:16;;;;;;;5.40;4.30;;;;;;;23.81;56.60;96126.15;108132;1279;22567;-78
2023/07/24 05:24:48;;;;;;;6.10;4.40;;;;;;;24.20;56.25;96133.61;108184;1279;22648;-78
2023/07/24 05:27:19;;;;;;;5.90;4.60;;;;;;;24.71;55.27;96127.55;108169;1256;22524;-78
2023/07/24 05:29:50;;;;;;;7.10;4.40;;;;;;;25.12;54.26;96124.68;108160;1279;22531;-78
2023/07/24 05:32:21;;;;;;;6.30;5.00;;;;;;;25.48;53.53;96125.67;108163;1279;23815;-77
2023/07/24 05:34:52;;;;;;;5.90;4.20;;;;;;;25.71;52.44;96127.89;108143;1279;24381;-77
2023/07/24 05:37:26;;;;;;;6.60;4.20;;;;;;;25.81;51.74;96123.23;108200;1279;22532;-77
2023/07/24 05:39:57;;;;;;;7.10;4.50;;;;;;;25.62;50.87;96126.86;108192;1276;24311;-77
2023/07/24 05:42:28;;;;;;;8.20;5.20;;;;;;;24.93;51.72;96130.05;108144;1271;22520;-77
2023/07/24 05:44:59;;;;;;;6.30;4.60;;;;;;;25.03;52.69;96127.21;108154;1279;22612;-78
2023/07/24 05:47:31;;;;;;;5.70;4.80;;;;;;;25.54;52.64;96131.73;108179;1280;22555;-76
2023/07/24 05:50:02;;;;;;;6.20;4.40;;;;;;;25.91;51.73;96130.06;108227;1279;22540;-77
2023/07/24 05:52:33;;;;;;;7.90;5.10;;;;;;;26.21;51.61;96133.27;108151;1271;22616;-78
2023/07/24 05:55:07;;;;;;;6.80;4.90;;;;;;;26.48;50.74;96123.52;108202;1273;22540;-77
2023/07/24 05:57:41;;;;;;;8.50;4.80;;;;;;;26.71;50.40;96126.95;108256;1279;22592;-78
2023/07/24 06:00:14;;;;;;;6.60;4.60;;;;;;;27.00;49.87;96127.77;108194;1279;22524;-77
2023/07/24 06:02:48;;;;;;;5.90;4.80;;;;;;;27.17;49.51;96127.38;108183;1279;22826;-77
2023/07/24 06:05:19;;;;;;;5.20;4.30;;;;;;;27.30;49.19;96127.13;108086;1275;22668;-77
2023/07/24 06:07:50;;;;;;;5.50;4.60;;;;;;;27.34;48.60;96134.19;108236;1271;22526;-77
2023/07/24 06:10:22;;;;;;;6.40;4.90;;;;;;;27.04;48.77;96131.50;108193;1279;22518;-77
2023/07/24 06:12:53;;;;;;;6.80;4.50;;;;;;;27.13;48.80;96135.78;108175;1279;24215;-77
2023/07/24 06:15:24;;;;;;;7.10;5.20;;;;;;;27.19;48.81;96140.89;108190;1279;22531;-77
2023/07/24 06:17:55;;;;;;;6.00;4.70;;;;;;;27.39;48.85;96139.05;108234;1271;22536;-77
2023/07/24 06:20:29;;;;;;;7.90;5.10;;;;;;;27.75;48.78;96134.38;108252;1271;22571;-77
2023/07/24 06:23:00;;;;;;;8.20;4.90;;;;;;;28.16;48.63;96139.40;108160;1279;22520;-77
2023/07/24 06:25:33;;;;;;;6.30;5.00;;;;;;;28.50;48.12;96143.14;108213;1275;22538;-77
2023/07/24 06:28:04;;;;;;;6.40;5.60;;;;;;;28.69;47.53;96146.58;108202;1271;22535;-77
2023/07/24 06:30:37;;;;;;;6.00;4.90;;;;;;;28.84;47.31;96142.67;108171;1280;24253;-77
2023/07/24 06:33:14;;;;;;;7.40;4.90;;;;;;;28.88;47.12;96144.98;108149;1279;30882;-77
2023/07/24 06:35:47;;;;;;;7.70;4.80;;;;;;;28.98;46.88;96139.94;108202;1271;22570;-76
2023/07/24 06:38:21;;;;;;;6.60;4.90;;;;;;;28.87;47.12;96141.23;108180;1279;22563;-77
2023/07/24 06:40:53;;;;;;;8.20;5.10;;;;;;;28.89;46.62;96141.30;108211;1279;22554;-77
2023/07/24 06:43:27;;;;;;;7.10;4.90;;;;;;;29.12;47.23;96140.45;108168;1279;22543;-77
2023/07/24 06:45:59;;;;;;;7.40;5.10;;;;;;;29.52;46.86;96139.99;108189;1277;22626;-77
2023/07/24 06:48:30;;;;;;;6.30;5.00;;;;;;;29.72;46.61;96137.04;108183;1271;22527;-77
2023/07/24 06:51:01;;;;;;;6.10;4.60;;;;;;;29.92;46.36;96142.01;108244;1272;25326;-77
2023/07/24 06:53:33;;;;;;;6.80;5.10;;;;;;;29.68;45.87;96141.23;108190;1272;26412;-77
2023/07/24 06:56:04;;;;;;;6.30;5.10;;;;;;;28.89;45.80;96137.77;108206;1279;23191;-77
2023/07/24 06:58:37;;;;;;;7.90;5.50;;;;;;;28.30;46.51;96139.13;108247;1279;23659;-77
2023/07/24 07:01:12;;;;;;;8.30;6.00;;;;;;;27.85;47.10;96140.91;108190;1276;24295;-77
2023/07/24 07:03:43;;;;;;;8.60;5.80;;;;;;;27.31;47.54;96138.10;108186;1279;24342;-77
2023/07/24 07:06:15;;;;;;;6.70;5.20;;;;;;;26.59;48.24;96138.32;108185;1279;25403;-77
2023/07/24 07:08:46;;;;;;;7.40;5.40;;;;;;;26.28;49.01;96143.98;108171;1271;22520;-77
2023/07/24 07:11:17;;;;;;;7.50;5.40;;;;;;;26.52;50.07;96147.44;108216;1279;22530;-77
2023/07/24 07:13:49;;;;;;;8.70;5.50;;;;;;;26.94;49.39;96137.81;108221;1279;26421;-77
2023/07/24 07:16:20;;;;;;;7.70;5.70;;;;;;;27.49;49.94;96134.16;108227;1272;25437;-78
2023/07/24 07:18:52;;;;;;;9.00;5.50;;;;;;;27.98;49.03;96131.00;108186;1279;25419;-77
2023/07/24 07:21:23;;;;;;;7.40;5.70;;;;;;;28.18;48.95;96130.42;108263;1279;22812;-77
2023/07/24 07:23:55;;;;;;;7.20;5.30;;;;;;;28.58;48.00;96134.31;108172;1279;22532;-76
2023/07/24 07:26:26;;;;;;;6.80;5.30;;;;;;;28.42;47.01;96134.41;108283;1279;22516;-77
2023/07/24 07:28:58;;;;;;;7.80;5.80;;;;;;;28.36;47.26;96131.66;108186;1272;22518;-77
2023/07/24 07:31:32;;;;;;;10.00;6.10;;;;;;;28.36;47.17;96134.33;108208;1279;22588;-77
2023/07/24 07:34:03;;;;;;;7.60;5.60;;;;;;;28.42;47.30;96133.64;108202;1276;24251;-76
2023/07/24 07:36:34;;;;;;;9.50;5.80;;;;;;;28.40;47.01;96138.48;108195;1271;22717;-77
2023/07/24 07:39:07;;;;;;;7.90;5.70;;;;;;;28.39;47.35;96140.83;108185;1272;22531;-77
2023/07/24 07:41:38;;;;;;;7.90;5.50;;;;;;;28.84;47.71;96145.40;108167;1279;22588;-77
2023/07/24 07:44:12;;;;;;;8.20;5.90;;;;;;;29.13;47.67;96138.10;108204;1260;24229;-77
2023/07/24 07:46:43;;;;;;;8.60;6.10;;;;;;;29.17;46.58;96137.02;108204;1279;22539;-77
2023/07/24 07:49:15;;;;;;;7.10;5.50;;;;;;;29.19;46.69;96138.96;108196;1272;22528;-76
2023/07/24 07:51:48;;;;;;;7.60;5.80;;;;;;;28.90;46.17;96138.86;108208;1276;22517;-77
2023/07/24 07:54:19;;;;;;;7.50;5.90;;;;;;;28.38;46.39;96134.75;108241;1279;24828;-77
2023/07/24 07:56:50;;;;;;;7.50;6.30;;;;;;;28.05;46.74;96125.64;108198;1275;22573;-77
2023/07/24 07:59:21;;;;;;;7.70;6.30;;;;;;;28.15;47.17;96122.20;108200;1279;22582;-77
2023/07/24 08:01:53;;;;;;;8.40;6.20;;;;;;;28.43;47.41;96120.38;108191;1279;22532;-77
2023/07/24 08:04:24;;;;;;;8.90;6.30;;;;;;;28.51;46.97;96115.38;108199;1279;22525;-77
2023/07/24 08:06:57;;;;;;;8.20;6.40;;;;;;;28.27;47.30;96110.95;108167;1272;25491;-77
2023/07/24 08:09:32;;;;;;;8.10;6.30;;;;;;;28.44;47.25;96110.87;108218;1279;22551;-77
2023/07/24 08:12:03;;;;;;;8.70;6.40;;;;;;;28.83;47.36;96108.54;108192;1271;24324;-77
2023/07/24 08:14:35;;;;;;;7.30;6.10;;;;;;;29.24;47.06;96110.56;108190;1277;22549;-77
2023/07/24 08:17:07;;;;;;;8.30;6.70;;;;;;;29.38;46.28;96108.73;108199;1276;22563;-77
2023/07/24 08:19:41;;;;;;;9.10;6.70;;;;;;;29.45;46.10;96110.66;108242;1276;22539;-77
2023/07/24 08:22:15;;;;;;;7.30;5.90;;;;;;;29.60;45.85;96109.91;108183;1271;22546;-77
2023/07/24 08:24:50;;;;;;;8.10;6.10;;;;;;;29.90;46.01;96108.55;108216;1279;25196;-77
2023/07/24 08:27:22;;;;;;;8.50;6.50;;;;;;;30.27;46.18;96103.08;108163;1275;22536;-77
2023/07/24 08:29:55;;;;;;;9.00;6.60;;;;;;;30.75;46.06;96108.20;108190;1279;22538;-77
2023/07/24 08:32:28;;;;;;;10.10;6.40;;;;;;;30.82;44.50;96106.11;108190;1276;22525;-77
2023/07/24 08:35:00;;;;;;;8.80;6.60;;;;;;;30.48;44.22;96104.09;108201;1279;24218;-77
2023/07/24 08:37:31;;;;;;;7.90;6.10;;;;;;;30.12;43.44;96099.99;108250;1272;22594;-77
2023/07/24 08:40:03;;;;;;;8.30;5.80;;;;;;;29.76;43.86;96100.90;108244;1279;22524;-77
2023/07/24 08:42:37;;;;;;;8.80;6.00;;;;;;;29.78;43.77;96099.09;108137;1279;22551;-77
2023/07/24 08:45:18;;;;;;;9.80;6.40;;;;;;;29.91;43.56;96091.37;108201;1279;22520;-76
2023/07/24 08:47:56;;;;;;;7.40;6.00;;;;;;;29.98;43.33;96097.48;108266;1279;22524;-77
2023/07/24 08:50:29;;;;;;;8.40;6.50;;;;;;;29.88;42.50;96090.86;108272;1279;23890;-77
2023/07/24 08:53:04;;;;;;;8.60;6.10;;;;;;;29.68;42.74;96086.60;108320;1279;24243;-75
2023/07/24 08:55:39;;;;;;;7.80;6.20;;;;;;;29.76;42.79;96083.89;108342;1272;22524;-76
2023/07/24 08:58:12;;;;;;;7.10;5.90;;;;;;;29.63;42.11;96086.20;108355;1279;22547;-77
2023/07/24 09:00:44;;;;;;;10.00;6.10;;;;;;;29.22;41.68;96088.36;108248;1272;23242;-76
2023/07/24 09:03:18;;;;;;;8.00;6.20;;;;;;;29.15;42.93;96096.44;108243;1272;25273;-75
2023/07/24 09:05:49;;;;;;;9.50;6.20;;;;;;;29.19;43.25;96095.52;108211;1276;22548;-76
2023/07/24 09:08:31;;;;;;;8.20;5.60;;;;;;;29.28;43.37;96091.09;108242;1276;24212;-75
2023/07/24 09:11:04;;;;;;;7.70;6.30;;;;;;;29.37;43.41;96086.35;108227;1279;22533;-75
2023/07/24 09:13:42;;;;;;;8.20;6.30;;;;;;;29.45;43.49;96083.52;108186;1272;22553;-74
2023/07/24 09:16:24;;;;;;;7.90;5.40;;;;;;;29.49;43.65;96085.41;108228;1271;22530;-75
2023/07/24 09:18:58;;;;;;;8.70;6.00;;;;;;;29.42;43.03;96083.00;108204;1279;22545;-75
2023/07/24 09:21:33;;;;;;;8.40;5.70;;;;;;;29.37;42.90;96069.41;108215;1279;22578;-75
2023/07/24 09:24:15;;;;;;;6.70;5.30;;;;;;;29.32;43.21;96065.29;108172;1279;22563;-76
2023/07/24 09:26:53;;;;;;;8.20;5.60;;;;;;;29.27;43.66;96065.98;108204;1279;22541;-74
2023/07/24 09:29:33;;;;;;;7.60;5.90;;;;;;;29.04;41.84;96055.95;108262;1279;24295;-75
2023/07/24 09:32:03;;;;;;;;;;;;;;;28.55;41.34;96060.08;108225;1275;24219;-76
2023/07/24 09:34:34;;;;;;;8.80;6.00;;;;;;;28.21;41.22;96066.30;108229;1272;27250;-77
2023/07/24 09:37:07;;;;;;;8.40;6.40;;;;;;;28.14;41.88;96071.98;108261;1272;25323;-77
2023/07/24 09:39:42;;;;;;;7.60;5.90;;;;;;;28.20;42.05;96061.48;108196;1279;22524;-76
2023/07/24 09:42:13;;;;;;;8.30;6.40;;;;;;;28.27;42.46;96054.40;108114;1279;22540;-77
2023/07/24 09:44:47;;;;;;;10.20;6.60;;;;;;;28.45;42.42;96050.48;108124;1278;22528;-76
2023/07/24 09:47:18;;;;;;;7.90;6.40;;;;;;;28.63;42.55;96048.84;108244;1279;25367;-76
2023/07/24 09:49:50;;;;;;;9.10;6.70;;;;;;;28.80;42.46;96048.70;108139;1279;22573;-76
2023/07/24 09:52:22;;;;;;;10.60;6.90;;;;;;;28.89;41.96;96046.57;108162;1279;22551;-77
2023/07/24 09:55:01;;;;;;;10.20;6.80;;;;;;;28.99;41.71;96043.23;108201;1272;22650;-77
2023/07/24 09:57:33;;;;;;;8.70;6.80;;;;;;;29.07;41.17;96040.55;108275;1279;22627;-76
2023/07/24 10:00:08;;;;;;;11.50;8.10;;;;;;;28.98;40.61;96034.83;108083;1279;24226;-78
2023/07/24 10:02:41;;;;;;;10.70;7.20;;;;;;;28.93;40.51;96036.54;108158;1276;22704;-76
2023/07/24 10:05:13;;;;;;;9.50;7.40;;;;;;;28.78;39.09;96034.30;108192;1280;22551;-78
2023/07/24 10:07:45;;;;;;;8.60;6.80;;;;;;;28.53;38.10;96041.64;108226;1278;25261;-75
2023/07/24 10:10:18;;;;;;;9.60;7.30;;;;;;;28.22;37.95;96037.10;108260;1272;22524;-77
2023/07/24 10:12:50;;;;;;;9.90;7.70;;;;;;;28.02;38.30;96032.09;108242;1276;22528;-77
2023/07/24 10:15:23;;;;;;;10.40;7.90;;;;;;;28.06;39.00;96029.86;108359;1272;24154;-76
2023/07/24 10:18:04;;;;;;;9.80;7.60;;;;;;;28.09;38.99;96030.30;108295;1272;22542;-76
2023/07/24 10:20:41;;;;;;;10.40;7.80;;;;;;;28.09;39.37;96027.88;108245;1274;23880;-76
2023/07/24 10:23:20;;;;;;;9.20;7.40;;;;;;;28.16;39.00;96031.30;108330;1272;25251;-76
2023/07/24 10:25:53;;;;;;;10.90;7.60;;;;;;;28.22;38.91;96027.90;108309;1279;25194;-76
2023/07/24 10:28:34;;;;;;;11.60;7.00;;;;;;;28.23;38.21;96027.73;108232;1272;24503;-77
2023/07/24 10:31:08;;;;;;;9.00;6.80;;;;;;;28.22;38.44;96025.02;108273;1279;22539;-77
2023/07/24 10:33:47;;;;;;;9.80;6.90;;;;;;;28.23;38.24;96027.17;108268;1279;22530;-77
2023/07/24 10:36:22;;;;;;;9.90;7.10;;;;;;;28.28;37.84;96025.20;108250;1278;24225;-77
2023/07/24 10:38:57;;;;;;;9.10;7.00;;;;;;;28.32;37.75;96014.95;108194;1279;22651;-76
2023/07/24 10:41:44;;;;;;;9.40;6.50;;;;;;;28.32;37.39;96020.48;108235;1272;22528;-76
2023/07/24 10:44:18;;;;;;;10.70;7.90;;;;;;;28.37;37.60;96017.14;108221;1279;35489;-76
2023/07/24 10:46:50;;;;;;;10.80;8.10;;;;;;;28.43;37.97;96016.91;108243;1272;22636;-76
2023/07/24 10:49:24;;;;;;;8.90;6.40;;;;;;;28.34;37.08;96010.56;108262;1278;22536;-76
2023/07/24 10:52:00;;;;;;;9.50;7.40;;;;;;;28.25;37.01;96012.67;108226;1279;25694;-76
2023/07/24 10:54:32;;;;;;;10.40;7.50;;;;;;;28.15;37.28;96009.52;108195;1278;24182;-76
2023/07/24 10:57:04;;;;;;;9.90;7.60;;;;;;;28.04;37.77;96010.04;108192;1277;22527;-77
2023/07/24 10:59:42;;;;;;;9.90;7.30;;;;;;;27.91;37.68;96007.52;108253;1280;22692;-77
2023/07/24 11:02:14;;;;;;;10.70;7.70;;;;;;;27.74;37.79;96005.13;108069;1272;22533;-77
2023/07/24 11:04:46;;;;;;;9.80;7.10;;;;;;;27.61;37.91;95999.70;108089;1278;22543;-77
2023/07/24 11:07:18;;;;;;;9.80;7.40;;;;;;;27.53;38.12;95994.57;108164;1278;23958;-76
2023/07/24 11:09:51;;;;;;;11.20;7.20;;;;;;;27.51;38.43;95987.66;108234;1279;24248;-76
2023/07/24 11:12:26;;;;;;;10.80;7.70;;;;;;;27.61;38.90;95988.42;108191;1279;22619;-77
2023/07/24 11:14:58;;;;;;;9.70;6.40;;;;;;;27.77;39.19;95980.42;108191;1278;22528;-76
2023/07/24 11:17:40;;;;;;;9.90;7.50;;;;;;;27.95;39.16;95977.21;108210;1279;22641;-77
2023/07/24 11:20:16;;;;;;;9.60;7.20;;;;;;;28.19;39.59;95975.98;108180;1279;22649;-77
2023/07/24 11:22:50;;;;;;;9.60;7.60;;;;;;;28.31;39.46;95970.04;108214;1272;22515;-77
2023/07/24 11:25:21;;;;;;;10.00;7.80;;;;;;;28.25;38.91;95970.08;108225;1279;22595;-77
2023/07/24 11:27:52;;;;;;;9.80;8.00;;;;;;;28.19;38.73;95967.20;108215;1279;24247;-77
2023/07/24 11:30:24;;;;;;;10.90;8.30;;;;;;;28.27;38.66;95966.00;108178;1278;22528;-77
2023/07/24 11:32:56;;;;;;;8.90;7.10;;;;;;;28.33;39.53;95966.33;108166;1279;24434;-77
2023/07/24 11:35:28;;;;;;;9.30;7.60;;;;;;;28.43;39.94;95957.86;108198;1272;24241;-77
2023/07/24 11:37:59;;;;;;;10.90;8.50;;;;;;;28.63;40.33;95957.13;108273;1276;22623;-76
2023/07/24 11:40:41;;;;;;;10.10;7.80;;;;;;;28.80;39.83;95950.08;108195;1277;22638;-76
2023/07/24 11:43:20;;;;;;;9.90;7.50;;;;;;;28.78;39.11;95951.14;108374;1272;25242;-76
2023/07/24 11:45:53;;;;;;;11.30;7.70;;;;;;;28.73;38.97;95952.55;108370;1279;24278;-76
2023/07/24 11:48:25;;;;;;;11.90;8.90;;;;;;;28.65;39.02;95952.09;108193;1273;22528;-76
2023/07/24 11:50:59;;;;;;;11.10;8.10;;;;;;;28.59;38.81;95949.14;108080;1278;23789;-76